Time;durP1;ratioP1;P1;durP2;ratioP2;P2;SDS_P1;SDS_P2;PMS_P1;PMS_P2;Temp;Humidity;BMP_temperature;BMP_pressure;BME280_temperature;BME280_humidity;BME280_pressure;Samples;Min_cycle;Max_cycle;Signal;HPM_P1;HPM_P2
2021/01/23 00:02:42;;;;;;;3.67;2.58;;;;;;;3.68;100.00;98725.69;5053352;28;20496;-68
2021/01/23 00:05:26;;;;;;;3.40;2.75;;;;;;;3.66;100.00;98727.63;5052606;28;20059;-68
2021/01/23 00:08:10;;;;;;;2.42;2.17;;;;;;;3.72;100.00;98737.59;5053092;28;20064;-68
2021/01/23 00:10:54;;;;;;;3.45;2.35;;;;;;;3.78;100.00;98744.97;5052238;28;20055;-68
2021/01/23 00:13:38;;;;;;;3.15;2.13;;;;;;;3.75;100.00;98743.44;5052132;28;20048;-68
2021/01/23 00:16:23;;;;;;;2.58;2.10;;;;;;;3.73;100.00;98741.91;5052494;28;20071;-68
2021/01/23 00:19:07;;;;;;;4.30;2.00;;;;;;;3.77;100.00;98745.94;5053078;28;20044;-68
2021/01/23 00:21:51;;;;;;;2.75;1.98;;;;;;;3.77;100.00;98762.56;5053459;28;20481;-68
2021/01/23 00:24:35;;;;;;;4.45;2.30;;;;;;;3.74;100.00;98754.13;5052109;28;20421;-68
2021/01/23 00:27:19;;;;;;;3.45;1.90;;;;;;;3.67;100.00;98771.47;5053047;28;20234;-68
2021/01/23 00:30:04;;;;;;;1.98;1.67;;;;;;;3.62;100.00;98763.13;5053088;28;20047;-68
2021/01/23 00:32:47;;;;;;;2.20;1.73;;;;;;;3.60;100.00;98775.59;5051934;28;20051;-68
2021/01/23 00:35:32;;;;;;;2.20;1.73;;;;;;;3.53;100.00;98777.97;5053281;28;20111;-68
2021/01/23 00:38:16;;;;;;;1.90;1.73;;;;;;;3.49;100.00;98773.09;5052134;28;20099;-68
2021/01/23 00:41:01;;;;;;;2.08;1.67;;;;;;;3.48;100.00;98771.44;5052225;28;20159;-68
2021/01/23 00:43:44;;;;;;;;;;;;;;;3.38;100.00;98775.84;5053613;28;20182;-68
2021/01/23 00:46:29;;;;;;;3.08;2.50;;;;;;;3.42;100.00;98754.38;5052941;28;20011;-68
2021/01/23 00:49:13;;;;;;;4.50;2.60;;;;;;;3.40;100.00;98764.22;5052038;28;20079;-68
2021/01/23 00:51:57;;;;;;;4.32;2.63;;;;;;;3.41;100.00;98765.03;5051887;28;20051;-68
2021/01/23 00:54:42;;;;;;;3.83;2.50;;;;;;;3.45;100.00;98763.81;5052095;28;20036;-68
2021/01/23 00:57:26;;;;;;;3.50;2.85;;;;;;;3.36;100.00;98775.97;5053038;28;20052;-68
2021/01/23 01:00:11;;;;;;;4.10;3.10;;;;;;;3.38;100.00;98775.84;5052965;28;20146;-68
2021/01/23 01:02:55;;;;;;;3.80;2.40;;;;;;;3.32;100.00;98784.28;5051950;28;20142;-68
2021/01/23 01:05:39;;;;;;;4.68;2.72;;;;;;;3.29;100.00;98782.75;5053019;28;20417;-68
2021/01/23 01:08:23;;;;;;;4.13;3.15;;;;;;;3.32;100.00;98787.75;5052980;28;20083;-68
2021/01/23 01:11:07;;;;;;;4.05;3.10;;;;;;;3.32;100.00;98793.03;5051930;28;20051;-68
2021/01/23 01:13:52;;;;;;;5.00;3.13;;;;;;;3.30;100.00;98789.69;5052676;28;20552;-68
2021/01/23 01:16:35;;;;;;;4.38;3.38;;;;;;;3.29;100.00;98792.44;5052870;28;20055;-68
2021/01/23 01:19:20;;;;;;;6.13;4.05;;;;;;;3.27;100.00;98794.41;5052117;28;20198;-68
2021/01/23 01:22:04;;;;;;;4.85;3.75;;;;;;;3.24;100.00;98797.31;5056633;28;20051;-67
2021/01/23 01:24:48;;;;;;;7.22;4.22;;;;;;;3.22;100.00;98802.69;5056613;28;20086;-68
2021/01/23 01:27:32;;;;;;;6.07;4.50;;;;;;;3.22;100.00;98800.06;5055353;28;20464;-68
2021/01/23 01:30:17;;;;;;;6.50;4.15;;;;;;;3.21;100.00;98795.75;5056135;28;20055;-68
2021/01/23 01:33:00;;;;;;;6.35;4.25;;;;;;;3.17;100.00;98794.38;5055134;28;20052;-68
2021/01/23 01:35:44;;;;;;;7.75;4.80;;;;;;;3.22;100.00;98801.84;5056102;28;20056;-68
2021/01/23 01:38:28;;;;;;;7.28;4.80;;;;;;;3.22;100.00;98802.69;5055598;28;20556;-68
2021/01/23 01:41:14;;;;;;;6.53;4.80;;;;;;;3.25;100.00;98798.97;5055339;28;20052;-68
2021/01/23 01:43:58;;;;;;;7.03;4.28;;;;;;;3.25;100.00;98807.69;5056261;28;20509;-68
2021/01/23 01:46:42;;;;;;;6.95;4.60;;;;;;;3.20;100.00;98814.31;5054945;28;20098;-68
2021/01/23 01:49:27;;;;;;;7.60;5.10;;;;;;;3.27;100.00;98815.47;5055027;28;20048;-68
2021/01/23 01:52:13;;;;;;;7.70;5.43;;;;;;;3.23;100.00;98825.41;5055168;28;20048;-68
2021/01/23 01:54:56;;;;;;;6.63;4.63;;;;;;;3.19;100.00;98825.81;5054738;28;20044;-68
2021/01/23 01:57:40;;;;;;;;;;;;;;;3.18;100.00;98821.53;5055169;28;20055;-68
2021/01/23 02:00:24;;;;;;;8.07;5.47;;;;;;;3.23;100.00;98824.59;5055613;28;19923;-68
2021/01/23 02:03:24;;;;;;;9.40;5.10;;;;;;;3.24;100.00;98826.28;5054924;28;20043;-68
2021/01/23 02:06:26;;;;;;;9.57;4.88;;;;;;;3.21;100.00;98826.50;5055843;28;20048;-68
2021/01/23 02:09:43;;;;;;;6.93;4.95;;;;;;;3.26;100.00;98832.22;5054722;28;20091;-68
2021/01/23 02:12:36;;;;;;;9.32;5.43;;;;;;;3.27;100.00;98826.84;5054549;28;20464;-68
2021/01/23 02:15:23;;;;;;;6.72;4.93;;;;;;;3.29;100.00;98842.50;5055688;28;20068;-68
2021/01/23 02:18:12;;;;;;;11.13;5.18;;;;;;;3.27;100.00;98844.44;5054477;28;20114;-68
2021/01/23 02:21:33;;;;;;;7.63;5.28;;;;;;;3.28;100.00;98848.72;5054231;28;20047;-68
2021/01/23 02:24:23;;;;;;;14.07;5.55;;;;;;;3.25;100.00;98859.53;5055496;28;20508;-68
2021/01/23 02:27:20;;;;;;;7.60;5.63;;;;;;;3.31;100.00;98867.72;5054163;28;20460;-68
2021/01/23 02:30:12;;;;;;;11.10;5.53;;;;;;;3.28;100.00;98867.16;5053923;28;20056;-68
2021/01/23 02:32:58;;;;;;;9.65;6.03;;;;;;;3.29;100.00;98867.03;5054925;28;20417;-69
2021/01/23 02:35:43;;;;;;;10.15;6.68;;;;;;;3.29;100.00;98861.78;5054022;28;20132;-68
2021/01/23 02:38:29;;;;;;;11.43;7.40;;;;;;;3.32;100.00;98865.91;5055204;28;20417;-68
2021/01/23 02:41:15;;;;;;;13.48;7.85;;;;;;;3.25;100.00;98864.81;5054109;28;20523;-68
2021/01/23 02:44:00;;;;;;;16.05;8.93;;;;;;;3.29;100.00;98867.03;5054127;28;20099;-68
2021/01/23 02:46:44;;;;;;;17.65;9.15;;;;;;;3.34;100.00;98874.53;5054068;28;20055;-68
2021/01/23 02:49:29;;;;;;;13.63;8.55;;;;;;;3.37;100.00;98875.13;5039876;28;20176;-68
2021/01/23 02:52:30;;;;;;;16.92;9.23;;;;;;;3.31;100.00;98880.06;5054703;28;20596;-68
2021/01/23 02:55:16;;;;;;;18.60;10.77;;;;;;;3.30;100.00;98878.38;5053904;28;20052;-68
2021/01/23 02:58:04;;;;;;;19.88;11.23;;;;;;;3.27;100.00;98895.31;5053801;28;20133;-68
2021/01/23 03:00:48;;;;;;;20.15;12.23;;;;;;;3.29;100.00;98890.75;5053473;28;20068;-68
2021/01/23 03:03:33;;;;;;;23.38;12.27;;;;;;;3.31;100.00;98895.84;5053984;28;20102;-68
2021/01/23 03:06:17;;;;;;;19.17;11.13;;;;;;;3.29;100.00;98892.53;5054356;28;20517;-68
2021/01/23 03:09:15;;;;;;;21.02;13.27;;;;;;;3.27;100.00;98897.09;5054312;28;20123;-68
2021/01/23 03:11:59;;;;;;;22.02;12.45;;;;;;;3.25;100.00;98901.66;5053574;28;20039;-68
2021/01/23 03:14:43;;;;;;;21.88;12.80;;;;;;;3.24;100.00;98900.00;5054187;28;20083;-68
2021/01/23 03:17:27;;;;;;;22.80;12.88;;;;;;;3.21;100.00;98901.09;5053252;28;20126;-69
2021/01/23 03:20:12;;;;;;;24.58;14.25;;;;;;;3.22;100.00;98902.75;5053117;28;20047;-68
2021/01/23 03:22:56;;;;;;;23.27;14.27;;;;;;;3.22;100.00;98896.63;5054094;28;20095;-68
2021/01/23 03:25:41;;;;;;;25.25;14.45;;;;;;;3.22;100.00;98891.38;5054322;28;20433;-68
2021/01/23 03:28:24;;;;;;;23.30;13.50;;;;;;;3.16;100.00;98895.38;5054283;28;20071;-69
2021/01/23 03:31:08;;;;;;;28.13;14.25;;;;;;;3.21;100.00;98889.72;5053186;28;20124;-68
2021/01/23 03:33:52;;;;;;;23.95;12.40;;;;;;;3.17;100.00;98896.22;5052765;28;20048;-68
2021/01/23 03:36:37;;;;;;;27.55;14.80;;;;;;;3.18;100.00;98895.25;5052806;28;20529;-69
2021/01/23 03:39:21;;;;;;;30.10;14.98;;;;;;;3.16;100.00;98898.00;5053776;28;20429;-68
2021/01/23 03:42:05;;;;;;;27.17;14.02;;;;;;;3.11;100.00;98894.94;5053742;28;20051;-67
2021/01/23 03:44:50;;;;;;;24.67;12.98;;;;;;;3.13;100.00;98895.63;5038911;28;20075;-67
2021/01/23 03:47:34;;;;;;;27.40;12.68;;;;;;;3.12;100.00;98901.06;5052667;28;20047;-69
2021/01/23 03:50:18;;;;;;;25.67;14.05;;;;;;;3.11;100.00;98894.09;5052610;28;20121;-68
2021/01/23 03:53:02;;;;;;;25.98;15.27;;;;;;;3.08;100.00;98899.63;5053520;28;20124;-68
2021/01/23 03:55:46;;;;;;;29.83;16.63;;;;;;;3.08;100.00;98907.53;5053807;28;20107;-69
2021/01/23 03:58:30;;;;;;;27.73;14.60;;;;;;;3.09;100.00;98901.28;5053510;28;20048;-69
2021/01/23 04:01:15;;;;;;;26.05;15.50;;;;;;;3.07;100.00;98905.88;5054134;28;20095;-68
2021/01/23 04:03:59;;;;;;;29.13;15.40;;;;;;;3.07;100.00;98911.97;5038591;28;20048;-68
2021/01/23 04:06:42;;;;;;;29.52;14.50;;;;;;;3.00;100.00;98912.59;5053611;28;20048;-69
2021/01/23 04:09:26;;;;;;;27.60;13.05;;;;;;;3.00;100.00;98916.09;5052413;28;20097;-69
2021/01/23 04:12:11;;;;;;;31.55;15.18;;;;;;;2.99;100.00;98918.84;5053284;28;20051;-69
2021/01/23 04:14:54;;;;;;;28.85;15.60;;;;;;;2.99;100.00;98916.19;5053251;28;20564;-69
2021/01/23 04:17:38;;;;;;;31.30;17.05;;;;;;;3.01;100.00;98916.91;5053185;28;20103;-69
2021/01/23 04:20:23;;;;;;;21.42;11.52;;;;;;;2.94;100.00;98919.22;5052159;28;20047;-69
2021/01/23 04:23:07;;;;;;;23.52;12.85;;;;;;;2.93;100.00;98924.63;5038565;28;20520;-69
2021/01/23 04:25:52;;;;;;;29.55;14.02;;;;;;;2.92;100.00;98920.34;5053326;28;20133;-69
2021/01/23 04:28:36;;;;;;;23.80;12.20;;;;;;;2.87;100.00;98922.50;5051973;28;20052;-69
2021/01/23 04:31:20;;;;;;;28.00;14.70;;;;;;;2.88;100.00;98921.53;5038042;28;20167;-69
2021/01/23 04:34:05;;;;;;;26.23;14.32;;;;;;;2.85;100.00;98919.16;5052903;28;20047;-69
2021/01/23 04:36:49;;;;;;;17.65;9.80;;;;;;;2.82;100.00;98929.97;5052277;28;20055;-69
2021/01/23 04:39:33;;;;;;;27.08;13.45;;;;;;;2.81;100.00;98934.38;5053216;28;20047;-69
2021/01/23 04:42:17;;;;;;;23.45;11.63;;;;;;;2.78;100.00;98931.16;5051955;28;20090;-69
2021/01/23 04:45:01;;;;;;;27.15;13.52;;;;;;;2.76;100.00;98925.19;5052215;28;20044;-69
2021/01/23 04:47:45;;;;;;;26.35;14.18;;;;;;;2.78;100.00;98934.66;5051881;28;20063;-69
2021/01/23 04:50:30;;;;;;;29.88;13.27;;;;;;;2.72;100.00;98929.88;5052777;28;20048;-70
2021/01/23 04:53:14;;;;;;;27.50;14.43;;;;;;;2.71;100.00;98937.91;5053224;28;20512;-69
2021/01/23 04:55:58;;;;;;;16.75;9.07;;;;;;;2.73;100.00;98936.00;5056082;28;20139;-69
2021/01/23 04:58:43;;;;;;;27.08;14.65;;;;;;;2.76;100.00;98931.31;5057044;28;20102;-69
2021/01/23 05:01:27;;;;;;;21.65;11.73;;;;;;;2.72;100.00;98935.13;5055818;28;20048;-69
2021/01/23 05:04:10;;;;;;;17.85;9.63;;;;;;;2.74;100.00;98942.91;5055723;28;20090;-69
2021/01/23 05:06:57;;;;;;;21.98;13.23;;;;;;;2.73;100.00;98936.00;5055962;28;20055;-69
2021/01/23 05:09:41;;;;;;;18.60;11.23;;;;;;;2.75;100.00;98934.06;5055569;28;20516;-69
2021/01/23 05:12:38;;;;;;;18.27;11.15;;;;;;;2.75;100.00;98939.31;5057025;28;20055;-70
2021/01/23 05:15:28;;;;;;;22.35;12.60;;;;;;;2.76;100.00;98935.72;5056780;28;20052;-69
2021/01/23 05:18:13;;;;;;;21.92;12.02;;;;;;;2.76;100.00;98933.94;5056518;28;20143;-69
2021/01/23 05:20:57;;;;;;;20.02;11.27;;;;;;;2.76;100.00;98927.84;5055389;28;20048;-69
2021/01/23 05:23:41;;;;;;;19.23;10.32;;;;;;;2.75;100.00;98934.06;5055625;28;20043;-69
2021/01/23 05:26:26;;;;;;;16.60;10.13;;;;;;;2.76;100.00;98930.47;5055344;28;20133;-69
2021/01/23 05:29:12;;;;;;;11.43;7.47;;;;;;;2.74;100.00;98935.84;5056270;28;20191;-69
2021/01/23 05:32:16;;;;;;;13.05;8.70;;;;;;;2.76;100.00;98925.19;5056488;28;20409;-69
2021/01/23 05:35:15;;;;;;;9.70;6.03;;;;;;;2.76;100.00;98914.66;5055213;28;20099;-69
2021/01/23 05:37:59;;;;;;;11.50;7.95;;;;;;;2.79;100.00;98914.41;5056106;28;20358;-69
2021/01/23 05:40:43;;;;;;;11.00;7.07;;;;;;;2.75;100.00;98902.47;5056055;28;20047;-69
2021/01/23 05:43:33;;;;;;;10.45;7.03;;;;;;;2.80;100.00;98908.19;5041544;28;20150;-69
2021/01/23 05:46:26;;;;;;;11.10;6.97;;;;;;;2.83;100.00;98910.56;5055240;28;20098;-69
2021/01/23 05:49:10;;;;;;;9.18;5.30;;;;;;;2.88;100.00;98911.00;5056187;28;20120;-69
2021/01/23 05:51:55;;;;;;;6.68;4.68;;;;;;;2.92;100.00;98909.81;5056010;28;20151;-69
2021/01/23 05:54:39;;;;;;;8.10;4.93;;;;;;;2.98;100.00;98909.28;5054969;28;20099;-69
2021/01/23 05:57:24;;;;;;;7.32;4.82;;;;;;;3.02;100.00;98908.06;5056041;28;20517;-69
2021/01/23 06:00:08;;;;;;;6.15;4.30;;;;;;;3.07;100.00;98908.50;5054743;28;20523;-69
2021/01/23 06:02:53;;;;;;;7.78;4.53;;;;;;;3.12;100.00;98901.06;5055851;28;20187;-69
2021/01/23 06:05:36;;;;;;;;;;;;;;;3.13;100.00;98910.63;5054838;28;20055;-69
2021/01/23 06:08:38;;;;;;;6.27;3.70;;;;;;;3.19;100.00;98908.28;5054869;28;19947;-69
2021/01/23 06:11:21;;;;;;;6.88;3.60;;;;;;;3.19;100.00;98920.59;5054733;28;20276;-69
2021/01/23 06:14:05;;;;;;;8.23;3.92;;;;;;;3.21;100.00;98916.88;5055653;28;20052;-69
2021/01/23 06:16:49;;;;;;;7.30;3.95;;;;;;;3.22;100.00;98913.28;5055642;28;20048;-69
2021/01/23 06:19:33;;;;;;;6.43;3.92;;;;;;;3.23;100.00;98904.41;5054343;28;20071;-70
2021/01/23 06:22:18;;;;;;;4.68;3.50;;;;;;;3.29;100.00;98914.44;5055569;28;20064;-70
2021/01/23 06:25:03;;;;;;;6.32;3.15;;;;;;;3.33;100.00;98904.47;5054517;28;20123;-69
2021/01/23 06:27:47;;;;;;;4.55;3.22;;;;;;;3.35;100.00;98899.91;5055216;28;20106;-69
2021/01/23 06:30:31;;;;;;;4.22;3.05;;;;;;;3.29;100.00;98898.63;5055589;28;20509;-70
2021/01/23 06:33:22;;;;;;;3.65;3.03;;;;;;;3.27;100.00;98899.72;5054920;28;20059;-70
2021/01/23 06:36:06;;;;;;;4.03;2.67;;;;;;;3.26;100.00;98905.97;5055170;28;20099;-69
2021/01/23 06:39:00;;;;;;;3.47;2.75;;;;;;;3.22;100.00;98901.91;5054228;28;20047;-70
2021/01/23 06:41:44;;;;;;;4.05;2.78;;;;;;;3.21;100.00;98906.34;5055195;28;20086;-70
2021/01/23 06:44:32;;;;;;;4.82;3.03;;;;;;;3.21;100.00;98916.88;5054139;28;20047;-69
2021/01/23 06:47:15;;;;;;;4.53;2.85;;;;;;;3.26;100.00;98900.69;5053856;28;20047;-69
2021/01/23 06:49:59;;;;;;;3.55;2.67;;;;;;;3.27;100.00;98910.25;5053891;28;20055;-70
2021/01/23 06:52:47;;;;;;;4.65;3.10;;;;;;;3.23;100.00;98924.66;5054656;28;20480;-70
2021/01/23 06:55:49;;;;;;;3.78;2.83;;;;;;;3.26;100.00;98919.13;5053849;28;20071;-69
2021/01/23 06:58:35;;;;;;;4.40;2.97;;;;;;;3.23;100.00;98927.31;5053887;28;20098;-70
2021/01/23 07:01:19;;;;;;;4.65;2.80;;;;;;;3.24;100.00;98915.81;5053814;28;20402;-70
2021/01/23 07:04:06;;;;;;;7.13;3.70;;;;;;;3.24;100.00;98921.06;5053767;28;20120;-70
2021/01/23 07:06:52;;;;;;;3.22;2.67;;;;;;;3.28;100.00;98914.56;5039636;28;20113;-69
2021/01/23 07:09:46;;;;;;;4.18;2.80;;;;;;;3.31;100.00;98916.91;5053500;28;20084;-70
2021/01/23 07:12:38;;;;;;;3.67;2.40;;;;;;;3.35;100.00;98923.63;5053264;28;20467;-70
2021/01/23 07:15:22;;;;;;;4.32;2.78;;;;;;;3.36;100.00;98909.47;5053336;28;20587;-70
2021/01/23 07:18:13;;;;;;;3.13;2.42;;;;;;;3.38;100.00;98912.81;5052594;28;20048;-70
2021/01/23 07:20:57;;;;;;;4.32;2.35;;;;;;;3.40;100.00;98916.97;5054111;28;20048;-69
2021/01/23 07:23:42;;;;;;;5.05;2.72;;;;;;;3.38;100.00;98903.13;5054107;28;20128;-70
2021/01/23 07:26:26;;;;;;;3.88;2.97;;;;;;;3.36;100.00;98901.56;5053280;28;20044;-70
2021/01/23 07:29:11;;;;;;;3.97;2.90;;;;;;;3.38;100.00;98910.16;5053941;28;20130;-70
2021/01/23 07:31:55;;;;;;;5.10;3.13;;;;;;;3.41;100.00;98907.25;5039192;28;20055;-67
2021/01/23 07:35:00;;;;;;;4.90;3.22;;;;;;;3.44;100.00;98907.84;5053111;28;20114;-69
2021/01/23 07:37:49;;;;;;;5.07;2.85;;;;;;;3.43;100.00;98905.34;5054365;28;20083;-70
2021/01/23 07:40:36;;;;;;;8.55;3.17;;;;;;;3.49;100.00;98902.19;5052825;28;20492;-70
2021/01/23 07:43:20;;;;;;;5.20;3.22;;;;;;;3.48;100.00;98904.00;5052785;28;20043;-69
2021/01/23 07:46:04;;;;;;;4.97;3.30;;;;;;;3.49;100.00;98897.75;5053062;28;20067;-70
2021/01/23 07:48:48;;;;;;;4.35;3.40;;;;;;;3.47;100.00;98901.47;5052905;28;20051;-69
2021/01/23 07:51:32;;;;;;;5.15;3.05;;;;;;;3.50;100.00;98895.94;5052641;28;20102;-69
2021/01/23 07:54:16;;;;;;;3.97;2.80;;;;;;;3.50;100.00;98898.56;5053654;28;20079;-69
2021/01/23 07:57:01;;;;;;;5.85;3.83;;;;;;;3.45;100.00;98890.25;5052539;28;20114;-69
2021/01/23 07:59:46;;;;;;;6.32;3.50;;;;;;;3.46;100.00;98868.22;5053434;28;20103;-70
2021/01/23 08:02:49;;;;;;;4.47;2.92;;;;;;;3.51;100.00;98868.63;5052405;28;20509;-70
2021/01/23 08:05:54;;;;;;;4.25;3.50;;;;;;;3.58;100.00;98869.75;5053662;28;20044;-69
2021/01/23 08:08:38;;;;;;;5.82;3.95;;;;;;;3.62;100.00;98872.00;5052556;28;20048;-69
2021/01/23 08:11:40;;;;;;;6.60;3.63;;;;;;;3.68;100.00;98868.84;5052566;28;20047;-70
2021/01/23 08:14:25;;;;;;;4.40;3.00;;;;;;;3.71;100.00;98867.72;5052528;28;20150;-70
2021/01/23 08:17:09;;;;;;;7.32;3.92;;;;;;;3.72;100.00;98872.00;5053252;28;20153;-69
2021/01/23 08:19:53;;;;;;;7.28;3.60;;;;;;;3.75;100.00;98854.13;5052168;28;20048;-70
2021/01/23 08:23:06;;;;;;;5.68;3.30;;;;;;;3.76;100.00;98861.06;5052424;28;20100;-70
2021/01/23 08:25:52;;;;;;;4.13;2.92;;;;;;;3.78;100.00;98860.94;5052132;28;20154;-69
2021/01/23 08:28:44;;;;;;;4.82;3.70;;;;;;;3.88;100.00;98843.34;5051905;28;20048;-69
2021/01/23 08:31:28;;;;;;;4.38;3.33;;;;;;;3.96;100.00;98840.84;5052309;28;20508;-70
2021/01/23 08:34:12;;;;;;;4.70;3.58;;;;;;;4.11;100.00;98839.47;5052731;28;20086;-68
2021/01/23 08:36:56;;;;;;;4.22;3.22;;;;;;;4.27;100.00;98839.75;5052991;28;20056;-69
2021/01/23 08:39:48;;;;;;;5.60;3.63;;;;;;;4.41;100.00;98839.31;5052098;28;20048;-68
2021/01/23 08:42:32;;;;;;;4.13;3.33;;;;;;;4.52;100.00;98833.88;5052945;28;20083;-69
2021/01/23 08:45:19;;;;;;;7.68;3.53;;;;;;;4.55;100.00;98831.81;5053030;28;20091;-69
2021/01/23 08:48:03;;;;;;;6.20;3.33;;;;;;;4.64;100.00;98824.84;5052392;28;20051;-69
2021/01/23 08:50:47;;;;;;;3.50;3.15;;;;;;;4.86;99.49;98816.59;5052755;28;20130;-69
2021/01/23 08:53:32;;;;;;;4.93;3.92;;;;;;;4.86;99.26;98816.59;5051757;28;20044;-69
2021/01/23 08:56:17;;;;;;;5.30;3.85;;;;;;;4.92;99.65;98810.75;5052803;28;20486;-69
2021/01/23 08:59:01;;;;;;;7.65;4.45;;;;;;;5.13;98.17;98815.66;5052008;28;20068;-69
2021/01/23 09:01:45;;;;;;;5.90;3.53;;;;;;;5.38;95.73;98812.38;5051763;28;20055;-69
2021/01/23 09:04:30;;;;;;;5.85;2.95;;;;;;;5.39;94.24;98816.66;5052992;28;20048;-68
2021/01/23 09:07:14;;;;;;;4.80;3.53;;;;;;;5.52;94.83;98814.50;5052241;28;20087;-68
2021/01/23 09:09:58;;;;;;;5.25;3.47;;;;;;;5.86;92.92;98802.34;5037574;28;20128;-69
2021/01/23 09:12:42;;;;;;;5.65;3.47;;;;;;;6.05;90.96;98799.56;5051899;28;20102;-69
2021/01/23 09:15:26;;;;;;;4.13;3.42;;;;;;;6.13;88.77;98798.78;5037624;28;20052;-69
2021/01/23 09:18:10;;;;;;;4.95;3.17;;;;;;;6.35;88.57;98801.00;5052797;28;20107;-67
2021/01/23 09:20:54;;;;;;;3.60;3.03;;;;;;;6.32;87.48;98804.75;5051509;28;20106;-68
2021/01/23 09:23:38;;;;;;;5.28;3.58;;;;;;;6.56;86.36;98806.78;5051846;28;20048;-69
2021/01/23 09:26:23;;;;;;;5.53;3.42;;;;;;;7.05;83.59;98803.44;5052770;28;20504;-69
2021/01/23 09:29:07;;;;;;;3.58;2.83;;;;;;;8.01;78.26;98801.97;5052279;28;20099;-69
2021/01/23 09:31:51;;;;;;;4.43;3.03;;;;;;;8.54;75.55;98789.13;5051745;28;20051;-68
2021/01/23 09:34:35;;;;;;;5.72;2.92;;;;;;;9.48;70.56;98790.88;5052407;28;20122;-69
2021/01/23 09:37:19;;;;;;;4.60;2.70;;;;;;;10.86;64.92;98797.56;5051399;28;20135;-69
2021/01/23 09:40:05;;;;;;;1.92;1.70;;;;;;;11.04;60.88;98800.72;5051725;28;20481;-69
2021/01/23 09:42:49;;;;;;;4.10;2.78;;;;;;;10.58;62.63;98777.03;5055313;28;20394;-69
2021/01/23 09:45:33;;;;;;;6.20;2.30;;;;;;;9.61;66.90;98780.50;5055366;28;20110;-68
2021/01/23 09:48:16;;;;;;;4.15;2.90;;;;;;;9.93;69.29;98775.84;5056266;28;20051;-68
2021/01/23 09:51:01;;;;;;;4.93;3.40;;;;;;;11.16;62.81;98775.25;5054751;28;20055;-68
2021/01/23 09:53:45;;;;;;;4.10;2.53;;;;;;;11.49;60.82;98779.19;5055752;28;20409;-68
2021/01/23 09:56:29;;;;;;;3.90;2.92;;;;;;;10.51;63.82;98776.06;5054867;28;20483;-68
2021/01/23 09:59:13;;;;;;;4.50;2.50;;;;;;;8.49;71.96;98775.50;5055197;28;20052;-68
2021/01/23 10:02:04;;;;;;;3.85;2.90;;;;;;;7.82;76.33;98773.09;5056285;28;20171;-68
2021/01/23 10:04:48;;;;;;;4.75;2.85;;;;;;;8.08;77.84;98766.66;5055627;28;20044;-69
2021/01/23 10:07:32;;;;;;;5.55;2.75;;;;;;;8.66;74.92;98771.84;5055621;28;20095;-68
2021/01/23 10:10:16;;;;;;;3.85;3.10;;;;;;;8.38;76.46;98765.22;5040540;28;20048;-68
2021/01/23 10:13:00;;;;;;;4.07;2.42;;;;;;;8.66;73.11;98771.84;5054479;28;20094;-68
2021/01/23 10:15:45;;;;;;;6.05;3.20;;;;;;;7.91;77.54;98749.06;5054480;28;20136;-68
2021/01/23 10:18:29;;;;;;;4.15;3.15;;;;;;;7.75;77.62;98758.81;5054343;28;20047;-68
2021/01/23 10:21:13;;;;;;;7.53;3.30;;;;;;;7.85;79.16;98751.53;5054397;28;20056;-68
2021/01/23 10:24:01;;;;;;;7.50;2.80;;;;;;;7.42;78.17;98742.97;5055535;28;20489;-68
2021/01/23 10:26:45;;;;;;;5.25;2.95;;;;;;;7.34;80.95;98740.31;5054176;28;20098;-68
2021/01/23 10:29:29;;;;;;;5.18;3.38;;;;;;;6.98;81.83;98742.31;5055428;28;20051;-69
2021/01/23 10:32:14;;;;;;;6.20;3.50;;;;;;;6.80;83.47;98743.38;5055106;28;20512;-67
2021/01/23 10:34:58;;;;;;;4.93;3.47;;;;;;;7.02;84.44;98733.06;5055204;28;20561;-67
2021/01/23 10:37:43;;;;;;;6.15;3.05;;;;;;;6.82;82.89;98736.94;5054311;28;20128;-67
2021/01/23 10:40:27;;;;;;;3.83;3.22;;;;;;;7.18;83.42;98732.31;5054129;28;20464;-67
2021/01/23 10:43:11;;;;;;;5.15;3.55;;;;;;;7.43;82.47;98726.09;5053998;28;20039;-68
2021/01/23 10:45:55;;;;;;;5.10;3.03;;;;;;;7.60;79.71;98728.59;5054036;28;20044;-68
2021/01/23 10:48:40;;;;;;;8.25;3.05;;;;;;;7.71;77.58;98721.19;5055140;28;20055;-67
2021/01/23 10:51:24;;;;;;;6.47;2.85;;;;;;;7.96;76.41;98714.91;5054179;28;20083;-67
2021/01/23 10:54:09;;;;;;;5.45;2.10;;;;;;;7.49;77.30;98720.97;5054746;28;20095;-68
2021/01/23 10:56:53;;;;;;;4.93;2.92;;;;;;;7.46;79.40;98708.03;5053671;28;20110;-68
2021/01/23 10:59:37;;;;;;;6.32;2.85;;;;;;;7.44;78.04;98710.03;5054742;28;20129;-67
2021/01/23 11:02:21;;;;;;;4.22;2.80;;;;;;;8.46;76.15;98702.28;5054826;28;20052;-68
2021/01/23 11:05:07;;;;;;;3.33;2.58;;;;;;;9.04;70.27;98691.31;5054769;28;20109;-68
2021/01/23 11:07:51;;;;;;;4.30;2.45;;;;;;;8.83;71.22;98696.38;5054675;28;20052;-68
2021/01/23 11:10:36;;;;;;;4.00;2.58;;;;;;;9.02;71.10;98699.50;5054338;28;20049;-68
2021/01/23 11:13:21;;;;;;;3.65;2.33;;;;;;;9.17;69.42;98691.63;5053549;28;20101;-67
2021/01/23 11:16:04;;;;;;;2.22;2.03;;;;;;;9.76;66.77;98693.59;5054635;28;20595;-68
2021/01/23 11:18:49;;;;;;;3.83;2.20;;;;;;;9.59;66.33;98686.75;5054356;28;20067;-68
2021/01/23 11:21:34;;;;;;;4.78;2.53;;;;;;;9.71;66.41;98675.53;5054519;28;20452;-68
2021/01/23 11:24:19;;;;;;;4.95;2.60;;;;;;;10.40;65.97;98668.13;5039656;28;20051;-68
2021/01/23 11:27:04;;;;;;;4.10;2.80;;;;;;;10.97;61.20;98668.34;5053227;28;20149;-68
2021/01/23 11:29:58;;;;;;;3.40;2.63;;;;;;;10.15;64.74;98673.03;5054536;28;20040;-68
2021/01/23 11:32:42;;;;;;;7.00;2.80;;;;;;;10.29;64.17;98662.41;5038980;28;20048;-68
2021/01/23 11:35:27;;;;;;;4.25;2.50;;;;;;;10.33;65.56;98661.88;5054258;28;20098;-67
2021/01/23 11:38:11;;;;;;;6.05;2.65;;;;;;;10.28;64.41;98660.75;5053150;28;20040;-68
2021/01/23 11:40:55;;;;;;;3.65;2.80;;;;;;;10.58;64.87;98655.31;5053764;28;20106;-67
2021/01/23 11:43:39;;;;;;;2.95;2.35;;;;;;;10.60;63.67;98637.28;5053072;28;20521;-68
2021/01/23 11:46:23;;;;;;;4.40;2.45;;;;;;;10.16;66.15;98648.88;5038764;28;20060;-68
2021/01/23 11:49:07;;;;;;;5.05;2.50;;;;;;;9.13;68.15;98647.75;5053695;28;20102;-67
2021/01/23 11:51:51;;;;;;;3.42;2.17;;;;;;;8.69;69.22;98641.31;5053030;28;20124;-68
2021/01/23 11:54:35;;;;;;;3.53;2.33;;;;;;;8.78;72.10;98634.97;5053871;28;20051;-67
2021/01/23 11:57:19;;;;;;;3.95;2.55;;;;;;;9.30;68.73;98628.91;5053666;28;20083;-67
2021/01/23 12:00:07;;;;;;;3.83;2.42;;;;;;;9.31;67.33;98630.56;5053596;28;20083;-68
2021/01/23 12:02:51;;;;;;;2.97;2.33;;;;;;;9.82;67.58;98623.69;5053487;28;20056;-68
2021/01/23 12:05:35;;;;;;;2.65;1.98;;;;;;;9.38;69.08;98617.41;5052573;28;20583;-67
2021/01/23 12:08:19;;;;;;;4.75;2.40;;;;;;;8.98;69.54;98612.31;5052636;28;20105;-67
2021/01/23 12:11:03;;;;;;;6.25;2.35;;;;;;;8.85;69.79;98617.38;5053707;28;20471;-68
2021/01/23 12:13:48;;;;;;;7.07;2.20;;;;;;;8.26;69.66;98601.97;5053666;28;20592;-67
2021/01/23 12:16:31;;;;;;;5.38;2.58;;;;;;;8.06;72.76;98600.66;5052274;28;20064;-68
2021/01/23 12:19:15;;;;;;;4.32;2.03;;;;;;;7.94;73.29;98588.72;5052082;28;20047;-67
2021/01/23 12:22:00;;;;;;;5.38;2.22;;;;;;;7.95;75.63;98582.41;5053326;28;20052;-67
2021/01/23 12:24:45;;;;;;;7.43;2.17;;;;;;;7.89;75.95;98580.44;5053476;28;20098;-69
2021/01/23 12:27:28;;;;;;;3.13;2.10;;;;;;;7.92;73.05;98574.78;5052282;28;20056;-69
2021/01/23 12:30:14;;;;;;;6.28;1.70;;;;;;;7.90;73.61;98560.84;5023806;28;20056;-69
2021/01/23 12:32:58;;;;;;;4.35;1.70;;;;;;;7.59;73.72;98560.75;5052827;28;20083;-69
2021/01/23 12:35:43;;;;;;;4.50;2.00;;;;;;;7.69;74.85;98547.28;5037996;28;20056;-69
2021/01/23 12:38:27;;;;;;;3.30;2.00;;;;;;;7.97;75.10;98540.63;5052028;28;20052;-69
2021/01/23 12:41:11;;;;;;;3.13;2.15;;;;;;;8.07;74.00;98538.59;5052415;28;20068;-69
2021/01/23 12:43:55;;;;;;;4.80;1.98;;;;;;;7.91;72.71;98534.16;5053212;28;20079;-69
2021/01/23 12:46:39;;;;;;;3.03;2.00;;;;;;;8.05;73.42;98528.16;5053169;28;20052;-69
2021/01/23 12:49:23;;;;;;;5.78;2.20;;;;;;;7.84;71.18;98529.72;5053081;28;20052;-69
2021/01/23 12:52:07;;;;;;;5.35;2.10;;;;;;;7.87;71.97;98510.81;5052865;28;20090;-69
2021/01/23 12:54:51;;;;;;;4.57;2.50;;;;;;;8.17;72.02;98508.19;5053052;28;20052;-69
2021/01/23 12:57:39;;;;;;;3.92;2.35;;;;;;;8.32;71.94;98508.34;5052071;28;20060;-69
2021/01/23 13:00:25;;;;;;;6.00;2.05;;;;;;;8.73;69.63;98508.00;5051520;28;20067;-69